MUC | München Airways

*** AEROSOFT GUTSCHEIN-KONZEPT AB 01.09.2017 GÜLTIG ***
EDDM 252320Z VRB01KT 9999 MIFG NSC 06/06 Q1020 NOSIG
Abflüge
Zeit Nach Flug-Nr.
01:00 Munich MUC413
Alle Abflüge →
49
Piloten
66
Flugzeuge
380
Routen
5065
Stunden Total
2923
Flüge Total
255
Charter Flüge

 LIVE MAP


DEPARTURES | ARRIVALS

Flug-Nr. ETD From To Status Gate (EDDM) In Progress
MUC413 10:00 Ngurah Rai (Bali) Munich BOOKED (MUC015) 107
MUC106 14:30 Munich Hamburg LANDED (MUC010) 151

 = München Airways   = München AirRegional   = München AirCargo

Weltweite Ziele

Wir fliegen sowohl kontinentale- als auch interkontinentale Ziele an

Flotte

München Airways ist mit einer der modernsten Flotten weltweit unterwegs

Real ATC

Wir fliegen auf dem Online-Netzwerk "IVAO". Nach Standardphrasen der DFS fliegen wir problemlos durch verschiedenste Lufträume

Soziales

Bei unserer Airline ist sowohl der Spass als auch die Beziehung zwischen den Piloten sehr wertvoll

Reale Flugrouten

Alle Routen werden von uns geprüft und täglich aktualisiert. Sommer- sowie Winterflugpläne bringen euch viel Abwechslung

Teamspeak 3

Mittels des Teamspeak 3 Servers können die Piloten zusammen fliegen oder sich gegenseitig austauschen

 LIVEBOARD

 KOMMENDE EVENTS

EventDatum

 NOTAMS

NOTAMDatum